sensor_id;sensor_type;location;lat;lon;timestamp;P1;durP1;ratioP1;P2;durP2;ratioP2
13404;SDS011;6773;51.192;7.024;2023-11-21T00:02:21;16.70;;;11.30;;
13404;SDS011;6773;51.192;7.024;2023-11-21T00:04:50;15.90;;;11.07;;
13404;SDS011;6773;51.192;7.024;2023-11-21T00:07:17;14.87;;;10.07;;
13404;SDS011;6773;51.192;7.024;2023-11-21T00:09:43;22.27;;;11.33;;
13404;SDS011;6773;51.192;7.024;2023-11-21T00:12:09;19.13;;;10.73;;
13404;SDS011;6773;51.192;7.024;2023-11-21T00:14:37;20.80;;;10.97;;
13404;SDS011;6773;51.192;7.024;2023-11-21T00:17:03;17.03;;;10.60;;
13404;SDS011;6773;51.192;7.024;2023-11-21T00:19:30;14.60;;;10.37;;
13404;SDS011;6773;51.192;7.024;2023-11-21T00:21:56;15.33;;;10.80;;
13404;SDS011;6773;51.192;7.024;2023-11-21T00:24:23;17.97;;;10.93;;
13404;SDS011;6773;51.192;7.024;2023-11-21T00:26:49;19.70;;;10.90;;
13404;SDS011;6773;51.192;7.024;2023-11-21T00:29:15;17.73;;;10.40;;
13404;SDS011;6773;51.192;7.024;2023-11-21T00:31:43;23.43;;;11.73;;
13404;SDS011;6773;51.192;7.024;2023-11-21T00:34:09;20.13;;;11.27;;
13404;SDS011;6773;51.192;7.024;2023-11-21T00:36:35;16.97;;;10.83;;
13404;SDS011;6773;51.192;7.024;2023-11-21T00:39:01;15.33;;;11.07;;
13404;SDS011;6773;51.192;7.024;2023-11-21T00:41:28;18.10;;;11.23;;
13404;SDS011;6773;51.192;7.024;2023-11-21T00:43:54;18.60;;;11.33;;
13404;SDS011;6773;51.192;7.024;2023-11-21T00:46:20;16.40;;;10.80;;
13404;SDS011;6773;51.192;7.024;2023-11-21T00:48:46;16.00;;;10.67;;
13404;SDS011;6773;51.192;7.024;2023-11-21T00:51:12;20.43;;;11.17;;
13404;SDS011;6773;51.192;7.024;2023-11-21T00:53:38;18.40;;;10.83;;
13404;SDS011;6773;51.192;7.024;2023-11-21T00:56:04;19.63;;;10.67;;
13404;SDS011;6773;51.192;7.024;2023-11-21T00:58:30;17.37;;;10.80;;
13404;SDS011;6773;51.192;7.024;2023-11-21T01:00:56;22.60;;;11.70;;
13404;SDS011;6773;51.192;7.024;2023-11-21T01:03:22;20.23;;;11.60;;
13404;SDS011;6773;51.192;7.024;2023-11-21T01:05:48;20.77;;;13.03;;
13404;SDS011;6773;51.192;7.024;2023-11-21T01:08:15;19.97;;;12.13;;
13404;SDS011;6773;51.192;7.024;2023-11-21T01:10:41;22.47;;;13.07;;
13404;SDS011;6773;51.192;7.024;2023-11-21T01:13:07;26.73;;;13.93;;
13404;SDS011;6773;51.192;7.024;2023-11-21T01:15:33;27.67;;;14.03;;
13404;SDS011;6773;51.192;7.024;2023-11-21T01:17:59;27.67;;;15.07;;
13404;SDS011;6773;51.192;7.024;2023-11-21T01:20:25;32.23;;;15.43;;
13404;SDS011;6773;51.192;7.024;2023-11-21T01:22:51;30.73;;;16.07;;
13404;SDS011;6773;51.192;7.024;2023-11-21T01:25:18;33.70;;;15.80;;
13404;SDS011;6773;51.192;7.024;2023-11-21T01:27:46;29.40;;;16.90;;
13404;SDS011;6773;51.192;7.024;2023-11-21T01:30:12;27.27;;;16.30;;
13404;SDS011;6773;51.192;7.024;2023-11-21T01:32:39;38.43;;;16.27;;
13404;SDS011;6773;51.192;7.024;2023-11-21T01:35:05;29.07;;;16.07;;
13404;SDS011;6773;51.192;7.024;2023-11-21T01:37:32;28.73;;;15.07;;
13404;SDS011;6773;51.192;7.024;2023-11-21T01:40:01;28.57;;;15.03;;
13404;SDS011;6773;51.192;7.024;2023-11-21T01:42:27;29.87;;;15.13;;
13404;SDS011;6773;51.192;7.024;2023-11-21T01:44:54;29.00;;;15.20;;
13404;SDS011;6773;51.192;7.024;2023-11-21T01:47:20;27.70;;;15.13;;
13404;SDS011;6773;51.192;7.024;2023-11-21T01:49:46;34.27;;;16.80;;
13404;SDS011;6773;51.192;7.024;2023-11-21T01:52:12;29.67;;;15.90;;
13404;SDS011;6773;51.192;7.024;2023-11-21T01:54:38;40.40;;;16.77;;
13404;SDS011;6773;51.192;7.024;2023-11-21T01:57:04;29.37;;;16.17;;
13404;SDS011;6773;51.192;7.024;2023-11-21T01:59:34;42.50;;;17.07;;
13404;SDS011;6773;51.192;7.024;2023-11-21T02:02:02;33.53;;;17.03;;
13404;SDS011;6773;51.192;7.024;2023-11-21T02:04:34;29.27;;;16.43;;
13404;SDS011;6773;51.192;7.024;2023-11-21T02:07:01;32.50;;;17.37;;
13404;SDS011;6773;51.192;7.024;2023-11-21T02:09:30;30.67;;;16.63;;
13404;SDS011;6773;51.192;7.024;2023-11-21T02:11:58;41.17;;;17.70;;
13404;SDS011;6773;51.192;7.024;2023-11-21T02:14:25;42.40;;;17.43;;
13404;SDS011;6773;51.192;7.024;2023-11-21T02:16:52;38.07;;;19.03;;
13404;SDS011;6773;51.192;7.024;2023-11-21T02:19:19;39.37;;;17.03;;
13404;SDS011;6773;51.192;7.024;2023-11-21T02:21:50;33.70;;;15.73;;
13404;SDS011;6773;51.192;7.024;2023-11-21T02:24:18;34.83;;;16.17;;
13404;SDS011;6773;51.192;7.024;2023-11-21T02:26:45;33.93;;;16.27;;
13404;SDS011;6773;51.192;7.024;2023-11-21T02:29:11;36.03;;;15.63;;
13404;SDS011;6773;51.192;7.024;2023-11-21T02:31:38;33.50;;;15.37;;
13404;SDS011;6773;51.192;7.024;2023-11-21T02:34:12;32.53;;;15.00;;
13404;SDS011;6773;51.192;7.024;2023-11-21T02:36:42;37.27;;;16.47;;
13404;SDS011;6773;51.192;7.024;2023-11-21T02:39:09;36.93;;;16.10;;
13404;SDS011;6773;51.192;7.024;2023-11-21T02:41:36;45.03;;;17.60;;
13404;SDS011;6773;51.192;7.024;2023-11-21T02:44:02;41.77;;;16.27;;
13404;SDS011;6773;51.192;7.024;2023-11-21T02:46:28;41.80;;;17.23;;
13404;SDS011;6773;51.192;7.024;2023-11-21T02:48:54;60.07;;;18.90;;
13404;SDS011;6773;51.192;7.024;2023-11-21T02:51:20;50.27;;;18.07;;
13404;SDS011;6773;51.192;7.024;2023-11-21T02:53:46;45.40;;;17.90;;
13404;SDS011;6773;51.192;7.024;2023-11-21T02:56:12;48.03;;;17.40;;
13404;SDS011;6773;51.192;7.024;2023-11-21T02:58:41;40.07;;;16.43;;
13404;SDS011;6773;51.192;7.024;2023-11-21T03:01:08;51.57;;;17.63;;
13404;SDS011;6773;51.192;7.024;2023-11-21T03:03:35;38.73;;;16.80;;
13404;SDS011;6773;51.192;7.024;2023-11-21T03:06:04;43.90;;;16.57;;
13404;SDS011;6773;51.192;7.024;2023-11-21T03:08:30;46.33;;;17.63;;
13404;SDS011;6773;51.192;7.024;2023-11-21T03:10:56;43.37;;;16.50;;
13404;SDS011;6773;51.192;7.024;2023-11-21T03:13:22;47.00;;;16.87;;
13404;SDS011;6773;51.192;7.024;2023-11-21T03:15:48;43.83;;;16.00;;
13404;SDS011;6773;51.192;7.024;2023-11-21T03:18:14;42.53;;;16.13;;
13404;SDS011;6773;51.192;7.024;2023-11-21T03:20:39;40.63;;;16.37;;
13404;SDS011;6773;51.192;7.024;2023-11-21T03:23:06;37.07;;;15.77;;
13404;SDS011;6773;51.192;7.024;2023-11-21T03:25:32;39.20;;;16.20;;
13404;SDS011;6773;51.192;7.024;2023-11-21T03:27:58;37.03;;;15.20;;
13404;SDS011;6773;51.192;7.024;2023-11-21T03:30:24;38.53;;;15.53;;
13404;SDS011;6773;51.192;7.024;2023-11-21T03:32:50;40.30;;;16.67;;
13404;SDS011;6773;51.192;7.024;2023-11-21T03:35:16;35.17;;;14.90;;
13404;SDS011;6773;51.192;7.024;2023-11-21T03:37:43;39.43;;;16.27;;
13404;SDS011;6773;51.192;7.024;2023-11-21T03:40:09;30.23;;;15.37;;
13404;SDS011;6773;51.192;7.024;2023-11-21T03:42:35;33.83;;;13.90;;
13404;SDS011;6773;51.192;7.024;2023-11-21T03:45:01;36.50;;;14.80;;
13404;SDS011;6773;51.192;7.024;2023-11-21T03:47:28;27.37;;;13.57;;
13404;SDS011;6773;51.192;7.024;2023-11-21T03:49:53;37.87;;;15.23;;
13404;SDS011;6773;51.192;7.024;2023-11-21T03:52:19;34.67;;;14.23;;
13404;SDS011;6773;51.192;7.024;2023-11-21T03:54:45;36.40;;;15.33;;
13404;SDS011;6773;51.192;7.024;2023-11-21T03:57:11;36.40;;;14.50;;
13404;SDS011;6773;51.192;7.024;2023-11-21T03:59:39;31.80;;;13.20;;
13404;SDS011;6773;51.192;7.024;2023-11-21T04:02:06;27.10;;;13.73;;
13404;SDS011;6773;51.192;7.024;2023-11-21T04:04:32;28.17;;;13.20;;
13404;SDS011;6773;51.192;7.024;2023-11-21T04:06:58;31.13;;;13.87;;
13404;SDS011;6773;51.192;7.024;2023-11-21T04:09:24;30.60;;;13.70;;
13404;SDS011;6773;51.192;7.024;2023-11-21T04:11:51;35.23;;;13.80;;
13404;SDS011;6773;51.192;7.024;2023-11-21T04:14:17;28.63;;;12.23;;
13404;SDS011;6773;51.192;7.024;2023-11-21T04:16:43;28.50;;;13.37;;
13404;SDS011;6773;51.192;7.024;2023-11-21T04:19:09;28.83;;;13.83;;
13404;SDS011;6773;51.192;7.024;2023-11-21T04:21:36;26.77;;;12.57;;
13404;SDS011;6773;51.192;7.024;2023-11-21T04:24:02;30.60;;;12.03;;
13404;SDS011;6773;51.192;7.024;2023-11-21T04:26:28;29.87;;;13.10;;
13404;SDS011;6773;51.192;7.024;2023-11-21T04:28:54;22.70;;;11.47;;
13404;SDS011;6773;51.192;7.024;2023-11-21T04:31:20;29.13;;;12.70;;
13404;SDS011;6773;51.192;7.024;2023-11-21T04:33:46;28.53;;;12.60;;
13404;SDS011;6773;51.192;7.024;2023-11-21T04:36:12;35.27;;;14.23;;
13404;SDS011;6773;51.192;7.024;2023-11-21T04:38:38;33.77;;;14.13;;
13404;SDS011;6773;51.192;7.024;2023-11-21T04:41:03;28.00;;;13.63;;
13404;SDS011;6773;51.192;7.024;2023-11-21T04:43:29;35.70;;;14.97;;
13404;SDS011;6773;51.192;7.024;2023-11-21T04:45:55;34.60;;;14.63;;
13404;SDS011;6773;51.192;7.024;2023-11-21T04:48:21;32.07;;;13.87;;
13404;SDS011;6773;51.192;7.024;2023-11-21T04:50:47;29.80;;;13.80;;
13404;SDS011;6773;51.192;7.024;2023-11-21T04:53:13;30.10;;;13.30;;
13404;SDS011;6773;51.192;7.024;2023-11-21T04:55:43;31.27;;;14.17;;
13404;SDS011;6773;51.192;7.024;2023-11-21T04:58:09;35.10;;;15.30;;
13404;SDS011;6773;51.192;7.024;2023-11-21T05:00:36;30.87;;;14.47;;
13404;SDS011;6773;51.192;7.024;2023-11-21T05:03:02;34.13;;;14.63;;
13404;SDS011;6773;51.192;7.024;2023-11-21T05:05:29;26.63;;;12.83;;
13404;SDS011;6773;51.192;7.024;2023-11-21T05:07:55;21.73;;;12.50;;
13404;SDS011;6773;51.192;7.024;2023-11-21T05:10:20;28.33;;;12.60;;
13404;SDS011;6773;51.192;7.024;2023-11-21T05:12:49;31.53;;;13.73;;
13404;SDS011;6773;51.192;7.024;2023-11-21T05:15:15;29.63;;;13.73;;
13404;SDS011;6773;51.192;7.024;2023-11-21T05:17:44;29.23;;;13.30;;
13404;SDS011;6773;51.192;7.024;2023-11-21T05:20:13;31.40;;;13.80;;
13404;SDS011;6773;51.192;7.024;2023-11-21T05:22:42;32.67;;;14.43;;
13404;SDS011;6773;51.192;7.024;2023-11-21T05:25:09;26.60;;;13.33;;
13404;SDS011;6773;51.192;7.024;2023-11-21T05:27:36;27.17;;;12.73;;
13404;SDS011;6773;51.192;7.024;2023-11-21T05:30:02;31.00;;;12.40;;
13404;SDS011;6773;51.192;7.024;2023-11-21T05:32:32;26.57;;;13.13;;
13404;SDS011;6773;51.192;7.024;2023-11-21T05:34:58;31.40;;;14.57;;
13404;SDS011;6773;51.192;7.024;2023-11-21T05:37:24;32.43;;;14.57;;
13404;SDS011;6773;51.192;7.024;2023-11-21T05:39:52;33.53;;;14.03;;
13404;SDS011;6773;51.192;7.024;2023-11-21T05:42:19;28.80;;;14.07;;
13404;SDS011;6773;51.192;7.024;2023-11-21T05:44:45;31.57;;;13.53;;
13404;SDS011;6773;51.192;7.024;2023-11-21T05:47:11;30.53;;;13.93;;
13404;SDS011;6773;51.192;7.024;2023-11-21T05:49:38;28.27;;;12.47;;
13404;SDS011;6773;51.192;7.024;2023-11-21T05:52:04;27.10;;;12.87;;
13404;SDS011;6773;51.192;7.024;2023-11-21T05:54:30;33.47;;;13.13;;
13404;SDS011;6773;51.192;7.024;2023-11-21T05:56:56;30.53;;;14.37;;
13404;SDS011;6773;51.192;7.024;2023-11-21T05:59:22;30.13;;;12.97;;
13404;SDS011;6773;51.192;7.024;2023-11-21T06:01:49;25.37;;;13.87;;
13404;SDS011;6773;51.192;7.024;2023-11-21T06:04:15;31.23;;;14.10;;
13404;SDS011;6773;51.192;7.024;2023-11-21T06:06:41;25.97;;;13.63;;
13404;SDS011;6773;51.192;7.024;2023-11-21T06:09:07;26.33;;;11.97;;
13404;SDS011;6773;51.192;7.024;2023-11-21T06:11:37;25.23;;;12.23;;
13404;SDS011;6773;51.192;7.024;2023-11-21T06:14:03;27.47;;;12.60;;
13404;SDS011;6773;51.192;7.024;2023-11-21T06:16:28;24.50;;;12.37;;
13404;SDS011;6773;51.192;7.024;2023-11-21T06:18:54;25.63;;;13.10;;
13404;SDS011;6773;51.192;7.024;2023-11-21T06:21:20;28.77;;;12.40;;
13404;SDS011;6773;51.192;7.024;2023-11-21T06:23:45;30.93;;;12.60;;
13404;SDS011;6773;51.192;7.024;2023-11-21T06:26:11;28.30;;;14.77;;
13404;SDS011;6773;51.192;7.024;2023-11-21T06:28:38;37.43;;;14.13;;
13404;SDS011;6773;51.192;7.024;2023-11-21T06:31:04;34.60;;;14.27;;
13404;SDS011;6773;51.192;7.024;2023-11-21T06:33:30;27.43;;;12.93;;
13404;SDS011;6773;51.192;7.024;2023-11-21T06:35:56;30.10;;;12.73;;
13404;SDS011;6773;51.192;7.024;2023-11-21T06:38:22;23.97;;;12.47;;
13404;SDS011;6773;51.192;7.024;2023-11-21T06:40:48;31.80;;;13.57;;
13404;SDS011;6773;51.192;7.024;2023-11-21T06:43:14;30.10;;;14.33;;
13404;SDS011;6773;51.192;7.024;2023-11-21T06:45:40;30.27;;;14.37;;
13404;SDS011;6773;51.192;7.024;2023-11-21T06:48:06;29.03;;;13.23;;
13404;SDS011;6773;51.192;7.024;2023-11-21T06:50:32;33.97;;;14.10;;
13404;SDS011;6773;51.192;7.024;2023-11-21T06:52:58;37.67;;;16.13;;
13404;SDS011;6773;51.192;7.024;2023-11-21T06:55:24;36.23;;;16.40;;
13404;SDS011;6773;51.192;7.024;2023-11-21T06:57:50;43.07;;;17.10;;
13404;SDS011;6773;51.192;7.024;2023-11-21T07:00:17;39.20;;;17.50;;
13404;SDS011;6773;51.192;7.024;2023-11-21T07:02:43;51.13;;;17.50;;
13404;SDS011;6773;51.192;7.024;2023-11-21T07:05:09;47.53;;;17.20;;
13404;SDS011;6773;51.192;7.024;2023-11-21T07:07:34;40.87;;;16.87;;
13404;SDS011;6773;51.192;7.024;2023-11-21T07:10:02;38.60;;;17.37;;
13404;SDS011;6773;51.192;7.024;2023-11-21T07:12:28;46.33;;;17.67;;
13404;SDS011;6773;51.192;7.024;2023-11-21T07:14:56;34.30;;;14.83;;
13404;SDS011;6773;51.192;7.024;2023-11-21T07:17:21;33.30;;;14.23;;
13404;SDS011;6773;51.192;7.024;2023-11-21T07:19:48;36.77;;;13.93;;
13404;SDS011;6773;51.192;7.024;2023-11-21T07:22:15;44.90;;;16.20;;
13404;SDS011;6773;51.192;7.024;2023-11-21T07:24:47;41.83;;;15.77;;
13404;SDS011;6773;51.192;7.024;2023-11-21T07:27:16;45.67;;;16.33;;
13404;SDS011;6773;51.192;7.024;2023-11-21T07:29:42;33.93;;;15.30;;
13404;SDS011;6773;51.192;7.024;2023-11-21T07:32:07;39.63;;;16.37;;
13404;SDS011;6773;51.192;7.024;2023-11-21T07:34:34;48.10;;;16.97;;
13404;SDS011;6773;51.192;7.024;2023-11-21T07:37:01;47.33;;;16.97;;
13404;SDS011;6773;51.192;7.024;2023-11-21T07:39:27;50.30;;;17.67;;
13404;SDS011;6773;51.192;7.024;2023-11-21T07:41:53;40.73;;;16.47;;
13404;SDS011;6773;51.192;7.024;2023-11-21T07:44:19;43.13;;;17.60;;
13404;SDS011;6773;51.192;7.024;2023-11-21T07:46:45;50.67;;;16.80;;
13404;SDS011;6773;51.192;7.024;2023-11-21T07:49:11;54.33;;;18.90;;
13404;SDS011;6773;51.192;7.024;2023-11-21T07:51:41;50.50;;;18.43;;
13404;SDS011;6773;51.192;7.024;2023-11-21T07:54:07;48.47;;;17.13;;
13404;SDS011;6773;51.192;7.024;2023-11-21T07:56:33;67.17;;;19.67;;
13404;SDS011;6773;51.192;7.024;2023-11-21T07:58:58;51.40;;;19.20;;
13404;SDS011;6773;51.192;7.024;2023-11-21T08:01:24;72.60;;;20.20;;
13404;SDS011;6773;51.192;7.024;2023-11-21T08:03:50;74.03;;;21.50;;
13404;SDS011;6773;51.192;7.024;2023-11-21T08:06:17;72.13;;;22.40;;
13404;SDS011;6773;51.192;7.024;2023-11-21T08:08:43;73.50;;;23.17;;
13404;SDS011;6773;51.192;7.024;2023-11-21T08:11:09;71.20;;;21.37;;
13404;SDS011;6773;51.192;7.024;2023-11-21T08:13:37;73.63;;;21.87;;
13404;SDS011;6773;51.192;7.024;2023-11-21T08:16:02;83.73;;;23.80;;
13404;SDS011;6773;51.192;7.024;2023-11-21T08:18:30;73.10;;;22.33;;
13404;SDS011;6773;51.192;7.024;2023-11-21T08:20:55;69.40;;;21.90;;
13404;SDS011;6773;51.192;7.024;2023-11-21T08:23:22;78.60;;;23.90;;
13404;SDS011;6773;51.192;7.024;2023-11-21T08:25:52;76.97;;;22.70;;
13404;SDS011;6773;51.192;7.024;2023-11-21T08:28:18;72.63;;;21.10;;
13404;SDS011;6773;51.192;7.024;2023-11-21T08:30:44;81.83;;;23.37;;
13404;SDS011;6773;51.192;7.024;2023-11-21T08:33:10;70.40;;;21.03;;
13404;SDS011;6773;51.192;7.024;2023-11-21T08:35:37;70.43;;;21.17;;
13404;SDS011;6773;51.192;7.024;2023-11-21T08:38:03;73.47;;;21.17;;
13404;SDS011;6773;51.192;7.024;2023-11-21T08:40:29;72.03;;;21.73;;
13404;SDS011;6773;51.192;7.024;2023-11-21T08:42:55;66.10;;;20.83;;
13404;SDS011;6773;51.192;7.024;2023-11-21T08:45:23;79.50;;;22.03;;
13404;SDS011;6773;51.192;7.024;2023-11-21T08:47:50;76.07;;;20.83;;
13404;SDS011;6773;51.192;7.024;2023-11-21T08:50:17;76.70;;;21.13;;
13404;SDS011;6773;51.192;7.024;2023-11-21T08:52:44;69.10;;;21.07;;
13404;SDS011;6773;51.192;7.024;2023-11-21T08:55:13;63.17;;;20.37;;
13404;SDS011;6773;51.192;7.024;2023-11-21T08:57:39;75.80;;;22.53;;
13404;SDS011;6773;51.192;7.024;2023-11-21T09:00:06;62.37;;;19.03;;
13404;SDS011;6773;51.192;7.024;2023-11-21T09:02:36;54.03;;;18.60;;
13404;SDS011;6773;51.192;7.024;2023-11-21T09:05:03;52.37;;;19.97;;
13404;SDS011;6773;51.192;7.024;2023-11-21T09:07:29;65.77;;;19.53;;
13404;SDS011;6773;51.192;7.024;2023-11-21T09:09:55;75.60;;;21.20;;
13404;SDS011;6773;51.192;7.024;2023-11-21T09:12:21;62.47;;;18.77;;
13404;SDS011;6773;51.192;7.024;2023-11-21T09:14:47;95.30;;;22.83;;
13404;SDS011;6773;51.192;7.024;2023-11-21T09:17:13;77.60;;;20.30;;
13404;SDS011;6773;51.192;7.024;2023-11-21T09:19:39;88.30;;;21.10;;
13404;SDS011;6773;51.192;7.024;2023-11-21T09:22:06;92.67;;;22.33;;
13404;SDS011;6773;51.192;7.024;2023-11-21T09:24:33;92.47;;;20.07;;
13404;SDS011;6773;51.192;7.024;2023-11-21T09:26:59;90.13;;;21.73;;
13404;SDS011;6773;51.192;7.024;2023-11-21T09:29:25;76.40;;;21.30;;
13404;SDS011;6773;51.192;7.024;2023-11-21T09:31:51;137.23;;;23.30;;
13404;SDS011;6773;51.192;7.024;2023-11-21T09:34:19;102.87;;;22.40;;
13404;SDS011;6773;51.192;7.024;2023-11-21T09:36:45;86.87;;;22.43;;
13404;SDS011;6773;51.192;7.024;2023-11-21T09:39:11;95.90;;;23.07;;
13404;SDS011;6773;51.192;7.024;2023-11-21T09:44:45;95.47;;;22.97;;
13404;SDS011;6773;51.192;7.024;2023-11-21T09:47:14;79.20;;;22.17;;
13404;SDS011;6773;51.192;7.024;2023-11-21T09:49:41;71.23;;;21.20;;
13404;SDS011;6773;51.192;7.024;2023-11-21T09:52:07;72.67;;;22.97;;
13404;SDS011;6773;51.192;7.024;2023-11-21T09:54:38;63.93;;;22.00;;
13404;SDS011;6773;51.192;7.024;2023-11-21T09:57:04;54.73;;;19.97;;
13404;SDS011;6773;51.192;7.024;2023-11-21T09:59:30;66.43;;;20.87;;
13404;SDS011;6773;51.192;7.024;2023-11-21T10:01:57;70.40;;;20.60;;
13404;SDS011;6773;51.192;7.024;2023-11-21T10:04:23;58.33;;;19.10;;
13404;SDS011;6773;51.192;7.024;2023-11-21T10:06:50;79.43;;;21.73;;
13404;SDS011;6773;51.192;7.024;2023-11-21T10:09:16;67.67;;;20.67;;
13404;SDS011;6773;51.192;7.024;2023-11-21T10:11:45;65.63;;;20.83;;
13404;SDS011;6773;51.192;7.024;2023-11-21T10:14:11;62.27;;;19.57;;
13404;SDS011;6773;51.192;7.024;2023-11-21T10:16:38;70.50;;;21.67;;
13404;SDS011;6773;51.192;7.024;2023-11-21T10:19:05;67.83;;;21.83;;
13404;SDS011;6773;51.192;7.024;2023-11-21T10:21:32;67.10;;;22.57;;
13404;SDS011;6773;51.192;7.024;2023-11-21T10:23:58;71.20;;;18.67;;
13404;SDS011;6773;51.192;7.024;2023-11-21T10:26:25;60.43;;;19.67;;
13404;SDS011;6773;51.192;7.024;2023-11-21T10:28:55;51.97;;;18.60;;
13404;SDS011;6773;51.192;7.024;2023-11-21T10:31:22;57.47;;;18.00;;
13404;SDS011;6773;51.192;7.024;2023-11-21T10:33:49;59.73;;;19.00;;
13404;SDS011;6773;51.192;7.024;2023-11-21T10:36:26;64.40;;;19.53;;
13404;SDS011;6773;51.192;7.024;2023-11-21T10:38:53;48.70;;;17.20;;
13404;SDS011;6773;51.192;7.024;2023-11-21T10:41:19;55.67;;;21.60;;
13404;SDS011;6773;51.192;7.024;2023-11-21T10:43:45;57.30;;;19.10;;
13404;SDS011;6773;51.192;7.024;2023-11-21T10:46:11;52.07;;;18.50;;
13404;SDS011;6773;51.192;7.024;2023-11-21T10:48:37;63.00;;;20.17;;
13404;SDS011;6773;51.192;7.024;2023-11-21T10:51:06;52.17;;;18.27;;
13404;SDS011;6773;51.192;7.024;2023-11-21T10:53:32;55.33;;;18.07;;
13404;SDS011;6773;51.192;7.024;2023-11-21T10:56:02;64.43;;;21.47;;
13404;SDS011;6773;51.192;7.024;2023-11-21T10:58:32;53.33;;;19.03;;
13404;SDS011;6773;51.192;7.024;2023-11-21T11:00:58;55.33;;;20.20;;
13404;SDS011;6773;51.192;7.024;2023-11-21T11:03:25;69.37;;;20.63;;
13404;SDS011;6773;51.192;7.024;2023-11-21T11:05:51;56.67;;;20.33;;
13404;SDS011;6773;51.192;7.024;2023-11-21T11:08:20;61.97;;;20.63;;
13404;SDS011;6773;51.192;7.024;2023-11-21T11:10:51;52.37;;;18.50;;
13404;SDS011;6773;51.192;7.024;2023-11-21T11:13:18;75.87;;;21.40;;
13404;SDS011;6773;51.192;7.024;2023-11-21T11:15:47;57.00;;;20.47;;
13404;SDS011;6773;51.192;7.024;2023-11-21T11:18:13;61.07;;;19.80;;
13404;SDS011;6773;51.192;7.024;2023-11-21T11:20:39;59.23;;;20.60;;
13404;SDS011;6773;51.192;7.024;2023-11-21T11:25:38;57.90;;;20.87;;
13404;SDS011;6773;51.192;7.024;2023-11-21T11:28:10;55.83;;;19.80;;
13404;SDS011;6773;51.192;7.024;2023-11-21T11:33:21;66.57;;;22.10;;
13404;SDS011;6773;51.192;7.024;2023-11-21T11:38:30;48.23;;;17.77;;
13404;SDS011;6773;51.192;7.024;2023-11-21T11:40:57;55.07;;;18.30;;
13404;SDS011;6773;51.192;7.024;2023-11-21T11:43:30;46.83;;;18.03;;
13404;SDS011;6773;51.192;7.024;2023-11-21T11:46:08;44.23;;;19.53;;
13404;SDS011;6773;51.192;7.024;2023-11-21T11:48:37;51.17;;;18.40;;
13404;SDS011;6773;51.192;7.024;2023-11-21T11:51:05;47.47;;;16.53;;
13404;SDS011;6773;51.192;7.024;2023-11-21T11:53:35;47.40;;;15.53;;
13404;SDS011;6773;51.192;7.024;2023-11-21T11:56:35;44.23;;;18.10;;
13404;SDS011;6773;51.192;7.024;2023-11-21T11:59:03;52.87;;;19.13;;
13404;SDS011;6773;51.192;7.024;2023-11-21T12:01:32;46.60;;;18.10;;
13404;SDS011;6773;51.192;7.024;2023-11-21T12:06:40;48.03;;;18.00;;
13404;SDS011;6773;51.192;7.024;2023-11-21T12:09:06;53.10;;;19.03;;
13404;SDS011;6773;51.192;7.024;2023-11-21T12:11:33;41.30;;;17.80;;
13404;SDS011;6773;51.192;7.024;2023-11-21T12:14:00;55.53;;;19.40;;
13404;SDS011;6773;51.192;7.024;2023-11-21T12:16:27;51.33;;;19.23;;
13404;SDS011;6773;51.192;7.024;2023-11-21T12:18:53;48.23;;;18.47;;
13404;SDS011;6773;51.192;7.024;2023-11-21T12:21:19;50.37;;;19.80;;
13404;SDS011;6773;51.192;7.024;2023-11-21T12:23:48;51.90;;;18.87;;
13404;SDS011;6773;51.192;7.024;2023-11-21T12:26:14;53.20;;;18.87;;
13404;SDS011;6773;51.192;7.024;2023-11-21T12:28:40;55.03;;;19.47;;
13404;SDS011;6773;51.192;7.024;2023-11-21T12:31:06;56.53;;;18.97;;
13404;SDS011;6773;51.192;7.024;2023-11-21T12:33:32;49.20;;;17.93;;
13404;SDS011;6773;51.192;7.024;2023-11-21T12:36:00;47.13;;;18.10;;
13404;SDS011;6773;51.192;7.024;2023-11-21T12:38:33;50.77;;;18.00;;
13404;SDS011;6773;51.192;7.024;2023-11-21T12:41:00;42.13;;;17.67;;
13404;SDS011;6773;51.192;7.024;2023-11-21T12:43:26;47.17;;;18.83;;
13404;SDS011;6773;51.192;7.024;2023-11-21T12:46:04;50.03;;;18.97;;
13404;SDS011;6773;51.192;7.024;2023-11-21T12:48:31;41.57;;;18.57;;
13404;SDS011;6773;51.192;7.024;2023-11-21T12:50:58;41.70;;;17.83;;
13404;SDS011;6773;51.192;7.024;2023-11-21T12:53:25;42.30;;;16.97;;
13404;SDS011;6773;51.192;7.024;2023-11-21T12:55:51;41.03;;;16.77;;
13404;SDS011;6773;51.192;7.024;2023-11-21T12:58:17;39.03;;;15.93;;
13404;SDS011;6773;51.192;7.024;2023-11-21T13:00:48;34.27;;;15.70;;
13404;SDS011;6773;51.192;7.024;2023-11-21T13:03:16;41.60;;;16.97;;
13404;SDS011;6773;51.192;7.024;2023-11-21T13:05:45;36.20;;;14.63;;
13404;SDS011;6773;51.192;7.024;2023-11-21T13:08:15;35.43;;;13.97;;
13404;SDS011;6773;51.192;7.024;2023-11-21T13:10:45;34.27;;;14.47;;
13404;SDS011;6773;51.192;7.024;2023-11-21T13:13:13;41.87;;;14.73;;
13404;SDS011;6773;51.192;7.024;2023-11-21T13:18:15;45.53;;;16.57;;
13404;SDS011;6773;51.192;7.024;2023-11-21T13:20:41;38.20;;;15.93;;
13404;SDS011;6773;51.192;7.024;2023-11-21T13:23:08;42.27;;;16.23;;
13404;SDS011;6773;51.192;7.024;2023-11-21T13:25:36;48.90;;;17.93;;
13404;SDS011;6773;51.192;7.024;2023-11-21T13:28:04;45.63;;;17.37;;
13404;SDS011;6773;51.192;7.024;2023-11-21T13:30:30;50.43;;;19.30;;
13404;SDS011;6773;51.192;7.024;2023-11-21T13:32:59;43.93;;;18.73;;
13404;SDS011;6773;51.192;7.024;2023-11-21T13:35:30;50.00;;;18.43;;
13404;SDS011;6773;51.192;7.024;2023-11-21T13:38:06;49.87;;;20.33;;
13404;SDS011;6773;51.192;7.024;2023-11-21T13:40:34;52.90;;;19.10;;
13404;SDS011;6773;51.192;7.024;2023-11-21T13:43:07;50.57;;;18.33;;
13404;SDS011;6773;51.192;7.024;2023-11-21T13:45:35;46.03;;;18.40;;
13404;SDS011;6773;51.192;7.024;2023-11-21T13:48:01;50.87;;;19.13;;
13404;SDS011;6773;51.192;7.024;2023-11-21T13:50:30;49.57;;;18.33;;
13404;SDS011;6773;51.192;7.024;2023-11-21T13:53:00;45.73;;;17.83;;
13404;SDS011;6773;51.192;7.024;2023-11-21T13:55:41;45.47;;;18.27;;
13404;SDS011;6773;51.192;7.024;2023-11-21T13:58:07;49.97;;;18.63;;
13404;SDS011;6773;51.192;7.024;2023-11-21T14:00:37;49.00;;;18.90;;
13404;SDS011;6773;51.192;7.024;2023-11-21T14:03:13;52.53;;;19.47;;
13404;SDS011;6773;51.192;7.024;2023-11-21T14:05:53;57.37;;;20.40;;
13404;SDS011;6773;51.192;7.024;2023-11-21T14:08:20;55.27;;;20.90;;
13404;SDS011;6773;51.192;7.024;2023-11-21T14:10:48;67.87;;;21.50;;
13404;SDS011;6773;51.192;7.024;2023-11-21T14:13:18;49.30;;;19.23;;
13404;SDS011;6773;51.192;7.024;2023-11-21T14:15:45;53.03;;;19.30;;
13404;SDS011;6773;51.192;7.024;2023-11-21T14:18:11;45.53;;;18.80;;
13404;SDS011;6773;51.192;7.024;2023-11-21T14:20:42;42.27;;;15.57;;
13404;SDS011;6773;51.192;7.024;2023-11-21T14:23:09;40.40;;;15.97;;
13404;SDS011;6773;51.192;7.024;2023-11-21T14:25:36;35.73;;;15.83;;
13404;SDS011;6773;51.192;7.024;2023-11-21T14:28:05;32.73;;;16.03;;
13404;SDS011;6773;51.192;7.024;2023-11-21T14:30:32;38.00;;;15.47;;
13404;SDS011;6773;51.192;7.024;2023-11-21T14:33:00;28.97;;;15.80;;
13404;SDS011;6773;51.192;7.024;2023-11-21T14:35:26;28.17;;;16.03;;
13404;SDS011;6773;51.192;7.024;2023-11-21T14:37:52;28.13;;;15.87;;
13404;SDS011;6773;51.192;7.024;2023-11-21T14:40:18;30.40;;;14.13;;
13404;SDS011;6773;51.192;7.024;2023-11-21T14:42:49;24.10;;;13.63;;
13404;SDS011;6773;51.192;7.024;2023-11-21T14:45:19;28.27;;;13.63;;
13404;SDS011;6773;51.192;7.024;2023-11-21T14:47:45;21.53;;;12.33;;
13404;SDS011;6773;51.192;7.024;2023-11-21T14:50:20;23.30;;;12.23;;